Lake Hughes, CA (93532)

11:09 AM PDT on August 27, 2016 (GMT -0700)
Pops Weather | | Change Station

Elev 3337 ft 34.67 °N, 118.45 °W | Updated 6 minutes ago

Clear
Clear
82.9 °F
Feels Like 81 °F
N
2.0
Wind Variable Wind from SSE
Gusts 7.0 mph

Today
High -- | Low -- °F
--% Chance of Precip.
Yesterday
High -- | Low -- °F
Precip. -- in
Pressure 29.96 in
Visibility 10.0 miles
Clouds Clear
Heat Index 81 °F
Dew Point 46 °F
Humidity 27%
Rainfall 0.00 in
Snow Depth Not available.
6:23 AM 7:26 PM
Waning Crescent, 22% visible
METAR KSDB 271748Z AUTO VRB04KT 10SM CLR 28/M01 A3014 RMK AO2 SLP146 T02781006 10278 20183 51009 $
Pressure 29.96 in
Visibility 10.0 miles
Clouds Clear
Heat Index 81 °F
Dew Point 46 °F
Humidity 27%
Rainfall 0.00 in
Snow Depth Not available.
6:23 AM 7:26 PM
Waning Crescent, 22% visible
METAR KSDB 271748Z AUTO VRB04KT 10SM CLR 28/M01 A3014 RMK AO2 SLP146 T02781006 10278 20183 51009 $

10-Day Weather Forecast

Almanac

Astronomy

Aug. 27, 2016 Rise Set
Actual Time
Civil Twilight
Nautical Twilight
Astronomical Twilight
Moon
Length of Visible Light
Length of Day
Tomorrow will be .
, % of the Moon is Illuminated

Today's Extremes

State Highs State Lows

Community

WunderPhotos

Upload Photos

1,935,393 photos uploaded!

WunderBlog® & News

Nearby

Air Quality

  Air Quality AQ Index Pollutant
Not available.

Snow Depth

Station Depth Elevation

Earthquake Activity

City Distance Mag. Time & Date
Minimum magnitude displayed is 2.5.

Coastal Water Temperatures

Place Temperature

Stations

Nearby Weather Stations

Station Location Temp. Windchill Dew Point Humidity Wind Precip. Elev Updated Type
                   

Watches & Warnings

There are currently no watches in effect.